createdAt,value
2018-07-30T00:01:32.954Z,3.43
2018-07-30T00:04:01.330Z,3.20
2018-07-30T00:06:29.599Z,3.27
2018-07-30T00:08:57.881Z,2.87
2018-07-30T00:11:26.153Z,3.40
2018-07-30T00:13:54.424Z,2.87
2018-07-30T00:16:22.421Z,3.47
2018-07-30T00:18:50.686Z,3.30
2018-07-30T00:21:19.033Z,3.23
2018-07-30T00:23:47.295Z,3.30
2018-07-30T00:26:15.627Z,3.17
2018-07-30T00:28:43.619Z,2.90
2018-07-30T00:31:11.859Z,3.43
2018-07-30T00:33:40.119Z,3.10
2018-07-30T00:36:08.426Z,3.50
2018-07-30T00:38:36.707Z,3.47
2018-07-30T00:41:04.967Z,3.03
2018-07-30T00:43:33.223Z,3.50
2018-07-30T00:46:01.488Z,3.30
2018-07-30T00:48:29.796Z,3.20
2018-07-30T00:50:58.068Z,2.90
2018-07-30T00:53:26.328Z,3.23
2018-07-30T00:55:54.335Z,3.17
2018-07-30T00:58:22.599Z,2.90
2018-07-30T01:00:50.897Z,3.23
2018-07-30T01:03:19.158Z,3.40
2018-07-30T01:05:47.475Z,3.00
2018-07-30T01:08:15.748Z,3.50
2018-07-30T01:10:44.032Z,3.07
2018-07-30T01:13:12.287Z,2.87
2018-07-30T01:15:40.531Z,3.20
2018-07-30T01:18:08.907Z,3.10
2018-07-30T01:20:37.620Z,3.20
2018-07-30T01:23:05.989Z,3.30
2018-07-30T01:25:34.340Z,3.10
2018-07-30T01:28:02.596Z,3.03
2018-07-30T01:30:30.843Z,3.50
2018-07-30T01:32:59.091Z,3.30
2018-07-30T01:35:27.351Z,3.30
2018-07-30T01:37:55.636Z,2.93
2018-07-30T01:40:23.900Z,3.30
2018-07-30T01:42:52.157Z,3.20
2018-07-30T01:45:20.411Z,3.03
2018-07-30T01:47:48.688Z,2.80
2018-07-30T01:50:16.976Z,3.27
2018-07-30T01:52:45.236Z,3.20
2018-07-30T01:55:13.503Z,3.13
2018-07-30T01:57:41.762Z,3.30
2018-07-30T02:00:10.041Z,3.20
2018-07-30T02:02:42.811Z,3.10
2018-07-30T02:05:11.266Z,3.50
2018-07-30T02:07:40.274Z,3.23
2018-07-30T02:10:09.780Z,3.30
2018-07-30T02:12:37.840Z,3.50
2018-07-30T02:15:06.230Z,3.03
2018-07-30T02:17:34.250Z,3.10
2018-07-30T02:20:02.513Z,2.90
2018-07-30T02:22:30.776Z,3.03
2018-07-30T02:24:59.044Z,3.10
2018-07-30T02:27:27.302Z,3.40
2018-07-30T02:29:55.569Z,3.00
2018-07-30T02:32:24.166Z,2.83
2018-07-30T02:34:52.170Z,3.20
2018-07-30T02:37:20.459Z,3.40
2018-07-30T02:39:48.736Z,3.03
2018-07-30T02:42:17.013Z,3.00
2018-07-30T02:44:45.289Z,3.10
2018-07-30T02:47:14.471Z,2.90
2018-07-30T02:49:42.457Z,2.90
2018-07-30T02:52:10.712Z,2.90
2018-07-30T02:54:38.965Z,2.93
2018-07-30T02:57:07.317Z,2.87
2018-07-30T02:59:35.593Z,2.87
2018-07-30T03:02:03.847Z,3.20
2018-07-30T03:04:32.113Z,3.00
2018-07-30T03:07:00.393Z,3.00
2018-07-30T03:09:28.689Z,2.97
2018-07-30T03:11:56.949Z,3.27
2018-07-30T03:14:25.216Z,2.83
2018-07-30T03:16:53.494Z,2.80
2018-07-30T03:19:21.770Z,3.30
2018-07-30T03:21:50.052Z,3.00
2018-07-30T03:24:18.303Z,3.10
2018-07-30T03:26:46.611Z,3.00
2018-07-30T03:29:14.875Z,3.20
2018-07-30T03:31:43.150Z,2.90
2018-07-30T03:34:11.143Z,3.23
2018-07-30T03:36:39.441Z,3.13
2018-07-30T03:39:08.569Z,3.10
2018-07-30T03:41:36.935Z,3.10
2018-07-30T03:44:05.213Z,3.17
2018-07-30T03:46:33.469Z,3.07
2018-07-30T03:49:01.765Z,2.97
2018-07-30T03:51:30.068Z,3.00
2018-07-30T03:53:58.403Z,3.27
2018-07-30T03:56:27.671Z,2.73
2018-07-30T03:58:56.207Z,3.10
2018-07-30T04:01:24.475Z,3.00
2018-07-30T04:03:52.752Z,3.57
2018-07-30T04:06:21.058Z,3.10
2018-07-30T04:08:49.331Z,3.23
2018-07-30T04:11:17.625Z,2.97
2018-07-30T04:13:45.887Z,3.10
2018-07-30T04:16:14.200Z,3.17
2018-07-30T04:18:42.467Z,3.00
2018-07-30T04:21:10.737Z,2.83
2018-07-30T04:23:38.983Z,2.93
2018-07-30T04:26:07.235Z,3.10
2018-07-30T04:28:35.515Z,3.10
2018-07-30T04:31:04.055Z,3.13
2018-07-30T04:33:32.331Z,3.20
2018-07-30T04:36:00.607Z,3.50
2018-07-30T04:38:28.859Z,3.10
2018-07-30T04:40:57.486Z,3.10
2018-07-30T04:43:25.735Z,3.00
2018-07-30T04:45:54.003Z,3.43
2018-07-30T04:48:22.256Z,3.10
2018-07-30T04:50:50.559Z,3.20
2018-07-30T04:53:18.832Z,3.20
2018-07-30T04:55:47.135Z,3.77
2018-07-30T04:58:15.392Z,2.90
2018-07-30T05:00:43.648Z,3.17
2018-07-30T05:03:11.903Z,3.13
2018-07-30T05:05:40.166Z,3.27
2018-07-30T05:08:08.884Z,3.10
2018-07-30T05:10:37.154Z,3.70
2018-07-30T05:13:05.411Z,3.40
2018-07-30T05:15:33.690Z,3.27
2018-07-30T05:18:01.955Z,3.50
2018-07-30T05:20:30.208Z,3.60
2018-07-30T05:22:58.484Z,3.40
2018-07-30T05:25:26.755Z,3.30
2018-07-30T05:27:55.023Z,3.10
2018-07-30T05:30:23.288Z,3.43
2018-07-30T05:32:51.540Z,3.10
2018-07-30T05:35:19.796Z,3.00
2018-07-30T05:37:48.180Z,3.20
2018-07-30T05:40:16.436Z,3.00
2018-07-30T05:42:44.743Z,2.90
2018-07-30T05:45:12.964Z,3.40
2018-07-30T05:47:41.265Z,3.23
2018-07-30T05:50:09.607Z,2.90
2018-07-30T05:52:37.828Z,3.00
2018-07-30T05:55:06.356Z,3.47
2018-07-30T05:57:34.618Z,3.13
2018-07-30T06:00:03.007Z,3.30
2018-07-30T06:02:31.284Z,3.20
2018-07-30T06:04:59.548Z,3.57
2018-07-30T06:07:27.833Z,3.20
2018-07-30T06:09:56.113Z,3.20
2018-07-30T06:12:24.649Z,3.17
2018-07-30T06:14:52.942Z,3.30
2018-07-30T06:17:21.228Z,3.30
2018-07-30T06:19:49.500Z,3.30
2018-07-30T06:22:17.742Z,3.33
2018-07-30T06:24:46.016Z,3.27
2018-07-30T06:27:14.296Z,3.00
2018-07-30T06:29:42.545Z,3.23
2018-07-30T06:32:10.809Z,2.90
2018-07-30T06:34:39.083Z,3.20
2018-07-30T06:37:07.341Z,3.13
2018-07-30T06:39:35.619Z,3.20
2018-07-30T06:42:03.881Z,3.20
2018-07-30T06:44:32.143Z,3.37
2018-07-30T06:47:00.560Z,3.17
2018-07-30T06:49:28.840Z,3.20
2018-07-30T06:51:57.116Z,3.20
2018-07-30T06:54:25.382Z,3.07
2018-07-30T06:56:53.680Z,3.00
2018-07-30T06:59:23.282Z,3.00
2018-07-30T07:01:52.360Z,3.60
2018-07-30T07:04:20.885Z,3.17
2018-07-30T07:06:49.157Z,2.83
2018-07-30T07:09:17.431Z,3.10
2018-07-30T07:11:45.719Z,3.00
2018-07-30T07:14:13.994Z,3.30
2018-07-30T07:16:42.316Z,3.13
2018-07-30T07:19:10.560Z,2.97
2018-07-30T07:21:38.900Z,3.10
2018-07-30T07:24:07.146Z,3.10
2018-07-30T07:26:35.424Z,3.10
2018-07-30T07:29:03.773Z,2.93
2018-07-30T07:31:32.073Z,3.00
2018-07-30T07:34:00.377Z,3.73
2018-07-30T07:36:28.645Z,3.67
2018-07-30T07:38:56.921Z,3.43
2018-07-30T07:41:25.205Z,3.70
2018-07-30T07:43:53.477Z,3.47
2018-07-30T07:46:21.751Z,3.33
2018-07-30T07:48:49.752Z,3.10
2018-07-30T07:51:18.046Z,3.30
2018-07-30T07:53:46.328Z,3.13
2018-07-30T07:56:14.585Z,2.93
2018-07-30T07:58:42.840Z,3.20
2018-07-30T08:01:11.165Z,2.97
2018-07-30T08:03:39.463Z,3.37
2018-07-30T08:06:07.786Z,3.33
2018-07-30T08:08:36.025Z,3.37
2018-07-30T08:11:04.407Z,2.63
2018-07-30T08:13:32.582Z,2.77
2018-07-30T08:16:00.853Z,2.87
2018-07-30T08:18:29.122Z,2.97
2018-07-30T08:20:57.391Z,2.80
2018-07-30T08:23:25.657Z,2.90
2018-07-30T08:25:53.938Z,3.00
2018-07-30T08:28:22.205Z,2.77
2018-07-30T08:30:50.460Z,2.70
2018-07-30T08:33:18.729Z,2.63
2018-07-30T08:35:46.993Z,2.40
2018-07-30T08:38:15.258Z,2.57
2018-07-30T08:40:43.528Z,2.67
2018-07-30T08:43:11.798Z,2.70
2018-07-30T08:45:40.069Z,2.57
2018-07-30T08:48:08.334Z,2.67
2018-07-30T08:50:36.598Z,2.67
2018-07-30T08:53:04.917Z,2.67
2018-07-30T08:55:33.188Z,2.97
2018-07-30T08:58:01.505Z,2.60
2018-07-30T09:00:29.767Z,2.63
2018-07-30T09:02:58.027Z,2.43
2018-07-30T09:05:26.291Z,2.50
2018-07-30T09:07:54.548Z,2.33
2018-07-30T09:10:22.825Z,2.83
2018-07-30T09:12:51.156Z,2.50
2018-07-30T09:15:19.438Z,2.53
2018-07-30T09:17:47.695Z,2.60
2018-07-30T09:20:15.966Z,2.57
2018-07-30T09:22:44.234Z,3.00
2018-07-30T09:25:12.591Z,2.30
2018-07-30T09:27:40.860Z,2.47
2018-07-30T09:30:09.134Z,3.20
2018-07-30T09:32:37.442Z,2.43
2018-07-30T09:35:05.670Z,2.70
2018-07-30T09:37:33.957Z,2.50
2018-07-30T09:40:02.211Z,2.50
2018-07-30T09:42:30.505Z,2.40
2018-07-30T09:44:58.849Z,2.57
2018-07-30T09:47:27.096Z,2.20
2018-07-30T09:49:55.382Z,2.33
2018-07-30T09:52:23.649Z,2.40
2018-07-30T09:54:51.928Z,2.63
2018-07-30T09:57:20.193Z,2.77
2018-07-30T09:59:48.464Z,2.30
2018-07-30T10:02:16.741Z,2.70
2018-07-30T10:04:45.331Z,2.50
2018-07-30T10:07:14.231Z,2.60
2018-07-30T10:09:42.507Z,2.57
2018-07-30T10:12:10.794Z,2.70
2018-07-30T10:14:39.128Z,2.97
2018-07-30T10:17:07.403Z,2.80
2018-07-30T10:19:35.659Z,2.67
2018-07-30T10:22:03.731Z,2.73
2018-07-30T10:24:32.005Z,2.80
2018-07-30T10:27:00.255Z,2.80
2018-07-30T10:29:28.244Z,3.00
2018-07-30T10:31:56.549Z,2.67
2018-07-30T10:34:24.847Z,2.60
2018-07-30T10:36:53.110Z,2.77
2018-07-30T10:39:21.380Z,2.77
2018-07-30T10:41:49.698Z,2.50
2018-07-30T10:44:17.809Z,3.03
2018-07-30T10:46:46.068Z,2.87
2018-07-30T10:49:14.371Z,2.70
2018-07-30T10:51:42.641Z,2.83
2018-07-30T10:54:10.926Z,2.73
2018-07-30T10:56:39.229Z,2.90
2018-07-30T10:59:07.495Z,2.90
2018-07-30T11:01:35.762Z,2.73
2018-07-30T11:04:04.076Z,2.90
2018-07-30T11:06:32.339Z,2.93
2018-07-30T11:09:00.615Z,2.80
2018-07-30T11:11:28.913Z,3.10
2018-07-30T11:13:57.179Z,2.77
2018-07-30T11:16:25.443Z,3.00
2018-07-30T11:18:53.720Z,3.00
2018-07-30T11:21:22.035Z,3.00
2018-07-30T11:23:50.343Z,3.20
2018-07-30T11:26:18.635Z,2.93
2018-07-30T11:28:46.627Z,2.90
2018-07-30T11:31:14.886Z,3.20
2018-07-30T11:33:43.154Z,2.97
2018-07-30T11:36:11.453Z,3.00
2018-07-30T11:38:39.721Z,3.07
2018-07-30T11:41:08.010Z,3.10
2018-07-30T11:43:36.425Z,2.50
2018-07-30T11:46:04.686Z,3.00
2018-07-30T11:48:33.058Z,2.70
2018-07-30T11:51:01.236Z,2.90
2018-07-30T11:53:29.494Z,2.80
2018-07-30T11:55:57.842Z,3.43
2018-07-30T11:58:26.106Z,3.03
2018-07-30T12:00:54.408Z,3.20
2018-07-30T12:03:22.652Z,3.10
2018-07-30T12:05:51.032Z,2.90
2018-07-30T12:08:19.344Z,3.27
2018-07-30T12:10:47.626Z,3.10
2018-07-30T12:13:15.880Z,3.37
2018-07-30T12:15:44.250Z,3.13
2018-07-30T12:18:12.536Z,3.23
2018-07-30T12:20:40.938Z,3.10
2018-07-30T12:23:09.241Z,2.90
2018-07-30T12:25:37.519Z,3.17
2018-07-30T12:28:05.787Z,3.07
2018-07-30T12:30:34.097Z,3.20
2018-07-30T12:33:02.368Z,3.10
2018-07-30T12:35:30.629Z,3.07
2018-07-30T12:37:58.908Z,2.90
2018-07-30T12:40:32.414Z,2.77
2018-07-30T12:43:01.149Z,2.90
2018-07-30T12:45:34.735Z,2.90
2018-07-30T12:48:03.025Z,2.90
2018-07-30T12:50:31.351Z,3.10
2018-07-30T12:52:59.594Z,2.90
2018-07-30T12:55:27.856Z,3.00
2018-07-30T12:57:56.116Z,3.00
2018-07-30T13:00:24.452Z,2.83
2018-07-30T13:02:52.522Z,3.10
2018-07-30T13:05:20.739Z,3.07
2018-07-30T13:07:49.020Z,2.90
2018-07-30T13:10:17.287Z,2.67
2018-07-30T13:12:45.556Z,3.13
2018-07-30T13:15:13.555Z,3.03
2018-07-30T13:17:41.873Z,3.20
2018-07-30T13:20:10.136Z,3.00
2018-07-30T13:22:38.450Z,3.03
2018-07-30T13:25:06.800Z,3.30
2018-07-30T13:27:35.180Z,2.90
2018-07-30T13:30:03.481Z,3.50
2018-07-30T13:32:31.817Z,2.90
2018-07-30T13:35:00.038Z,3.07
2018-07-30T13:37:28.296Z,2.97
2018-07-30T13:39:56.559Z,2.83
2018-07-30T13:42:24.844Z,3.10
2018-07-30T13:44:52.865Z,3.20
2018-07-30T13:47:21.182Z,3.43
2018-07-30T13:49:49.452Z,2.80
2018-07-30T13:52:17.744Z,3.20
2018-07-30T13:54:46.042Z,3.40
2018-07-30T13:57:14.333Z,3.10
2018-07-30T13:59:42.339Z,2.90
2018-07-30T14:02:10.606Z,3.30
2018-07-30T14:04:38.900Z,3.20
2018-07-30T14:07:07.189Z,3.00
2018-07-30T14:09:35.486Z,2.93
2018-07-30T14:12:03.769Z,3.27
2018-07-30T14:14:32.065Z,3.57
2018-07-30T14:17:00.352Z,3.30
2018-07-30T14:19:28.684Z,3.00
2018-07-30T14:21:56.977Z,3.20
2018-07-30T14:24:25.258Z,2.87
2018-07-30T14:26:53.566Z,3.50
2018-07-30T14:29:21.857Z,3.10
2018-07-30T14:31:50.209Z,3.40
2018-07-30T14:34:18.482Z,3.03
2018-07-30T14:36:46.908Z,3.10
2018-07-30T14:39:15.185Z,3.30
2018-07-30T14:41:43.467Z,3.27
2018-07-30T14:44:11.483Z,3.20
2018-07-30T14:46:39.738Z,3.43
2018-07-30T14:49:08.033Z,3.57
2018-07-30T14:51:36.330Z,3.10
2018-07-30T14:54:04.597Z,3.40
2018-07-30T14:56:32.875Z,3.40
2018-07-30T14:59:01.158Z,3.50
2018-07-30T15:01:29.466Z,3.00
2018-07-30T15:03:57.497Z,3.67
2018-07-30T15:06:25.758Z,3.50
2018-07-30T15:08:54.060Z,3.70
2018-07-30T15:11:22.368Z,3.67
2018-07-30T15:13:50.648Z,3.47
2018-07-30T15:16:18.959Z,3.70
2018-07-30T15:18:47.218Z,3.23
2018-07-30T15:21:15.493Z,3.50
2018-07-30T15:23:43.749Z,3.50
2018-07-30T15:26:12.032Z,3.20
2018-07-30T15:28:40.313Z,3.73
2018-07-30T15:31:08.619Z,3.00
2018-07-30T15:33:36.966Z,3.17
2018-07-30T15:36:05.237Z,3.40
2018-07-30T15:38:33.525Z,3.50
2018-07-30T15:41:01.849Z,3.60
2018-07-30T15:43:30.131Z,3.40
2018-07-30T15:45:58.415Z,4.10
2018-07-30T15:48:26.695Z,3.40
2018-07-30T15:50:54.953Z,3.70
2018-07-30T15:53:23.214Z,3.60
2018-07-30T15:55:51.508Z,3.60
2018-07-30T15:58:19.779Z,3.40
2018-07-30T16:00:48.070Z,3.33
2018-07-30T16:03:16.349Z,3.33
2018-07-30T16:05:44.716Z,3.43
2018-07-30T16:08:12.968Z,3.20
2018-07-30T16:10:41.239Z,3.40
2018-07-30T16:13:09.536Z,3.70
2018-07-30T16:15:37.809Z,3.70
2018-07-30T16:18:06.115Z,3.50
2018-07-30T16:20:34.112Z,3.20
2018-07-30T16:23:02.419Z,3.30
2018-07-30T16:25:30.799Z,3.30
2018-07-30T16:27:59.080Z,3.87
2018-07-30T16:30:27.363Z,3.67
2018-07-30T16:32:55.663Z,3.70
2018-07-30T16:35:23.978Z,3.87
2018-07-30T16:37:52.325Z,4.00
2018-07-30T16:40:20.607Z,3.83
2018-07-30T16:42:48.888Z,3.87
2018-07-30T16:45:17.254Z,3.87
2018-07-30T16:47:45.557Z,4.10
2018-07-30T16:50:13.833Z,4.13
2018-07-30T16:52:42.098Z,4.73
2018-07-30T16:55:10.389Z,4.40
2018-07-30T16:57:38.656Z,4.70
2018-07-30T17:00:09.231Z,4.70
2018-07-30T17:02:37.528Z,4.33
2018-07-30T17:05:06.325Z,4.57
2018-07-30T17:07:34.571Z,4.20
2018-07-30T17:10:02.845Z,5.47
2018-07-30T17:12:31.122Z,4.30
2018-07-30T17:14:59.394Z,4.57
2018-07-30T17:17:27.658Z,4.00
2018-07-30T17:19:56.031Z,5.23
2018-07-30T17:22:24.436Z,4.10
2018-07-30T17:24:53.048Z,3.97
2018-07-30T17:27:21.337Z,3.80
2018-07-30T17:29:49.655Z,3.90
2018-07-30T17:32:17.884Z,3.70
2018-07-30T17:34:46.180Z,3.73
2018-07-30T17:37:14.430Z,3.80
2018-07-30T17:39:42.709Z,3.80
2018-07-30T17:42:10.963Z,3.50
2018-07-30T17:44:39.252Z,3.93
2018-07-30T17:47:07.563Z,4.07
2018-07-30T17:49:35.851Z,4.77
2018-07-30T17:52:04.126Z,6.80
2018-07-30T17:54:32.415Z,5.40
2018-07-30T17:57:00.716Z,6.77
2018-07-30T17:59:29.029Z,7.10
2018-07-30T18:01:57.288Z,6.13
2018-07-30T18:04:25.685Z,5.83
2018-07-30T18:06:53.988Z,6.00
2018-07-30T18:09:23.141Z,5.23
2018-07-30T18:11:51.433Z,5.20
2018-07-30T18:14:19.704Z,5.30
2018-07-30T18:16:47.983Z,4.67
2018-07-30T18:19:16.276Z,4.63
2018-07-30T18:21:44.585Z,5.20
2018-07-30T18:24:12.883Z,4.60
2018-07-30T18:26:41.176Z,4.40
2018-07-30T18:29:09.455Z,4.70
2018-07-30T18:31:37.764Z,4.53
2018-07-30T18:34:06.049Z,4.20
2018-07-30T18:36:34.316Z,4.07
2018-07-30T18:39:02.665Z,3.93
2018-07-30T18:41:30.937Z,4.47
2018-07-30T18:44:01.174Z,4.20
2018-07-30T18:46:29.442Z,4.00
2018-07-30T18:48:57.721Z,4.50
2018-07-30T18:51:25.995Z,4.57
2018-07-30T18:53:54.298Z,3.73
2018-07-30T18:56:22.618Z,4.03
2018-07-30T18:58:50.914Z,4.07
2018-07-30T19:01:18.944Z,3.90
2018-07-30T19:03:47.253Z,3.73
2018-07-30T19:06:15.571Z,3.70
2018-07-30T19:08:43.873Z,4.00
2018-07-30T19:11:12.171Z,4.13
2018-07-30T19:13:40.529Z,3.90
2018-07-30T19:16:08.897Z,3.77
2018-07-30T19:18:37.205Z,3.80
2018-07-30T19:21:05.831Z,3.77
2018-07-30T19:23:34.194Z,3.50
2018-07-30T19:26:02.805Z,4.00
2018-07-30T19:28:31.106Z,4.07
2018-07-30T19:30:59.477Z,3.70
2018-07-30T19:33:27.846Z,3.87
2018-07-30T19:35:56.134Z,3.73
2018-07-30T19:38:24.464Z,3.70
2018-07-30T19:40:52.964Z,3.40
2018-07-30T19:43:21.286Z,4.10
2018-07-30T19:45:49.608Z,3.80
2018-07-30T19:48:17.777Z,3.70
2018-07-30T19:50:46.220Z,4.00
2018-07-30T19:53:14.564Z,3.80
2018-07-30T19:55:42.899Z,4.10
2018-07-30T19:58:11.470Z,4.10
2018-07-30T20:00:39.539Z,3.97
2018-07-30T20:03:07.877Z,3.73
2018-07-30T20:05:36.207Z,3.83
2018-07-30T20:08:04.508Z,3.83
2018-07-30T20:10:32.860Z,4.30
2018-07-30T20:13:01.166Z,3.80
2018-07-30T20:15:29.464Z,4.03
2018-07-30T20:17:58.102Z,3.90
2018-07-30T20:20:26.402Z,4.20
2018-07-30T20:22:54.749Z,4.17
2018-07-30T20:25:23.107Z,3.73
2018-07-30T20:27:51.419Z,3.90
2018-07-30T20:30:19.512Z,4.37
2018-07-30T20:32:47.849Z,3.77
2018-07-30T20:35:16.153Z,4.33
2018-07-30T20:37:45.360Z,4.40
2018-07-30T20:40:13.758Z,4.13
2018-07-30T20:42:42.345Z,4.17
2018-07-30T20:45:10.704Z,4.20
2018-07-30T20:47:39.028Z,3.90
2018-07-30T20:50:07.627Z,3.60
2018-07-30T20:52:35.892Z,3.87
2018-07-30T20:55:03.904Z,3.90
2018-07-30T20:57:32.209Z,3.83
2018-07-30T21:00:00.509Z,4.27
2018-07-30T21:02:28.836Z,3.93
2018-07-30T21:04:57.130Z,3.77
2018-07-30T21:07:25.417Z,4.07
2018-07-30T21:09:53.745Z,3.50
2018-07-30T21:12:22.040Z,3.90
2018-07-30T21:14:50.310Z,3.87
2018-07-30T21:17:18.638Z,3.60
2018-07-30T21:19:46.892Z,3.30
2018-07-30T21:22:15.173Z,3.90
2018-07-30T21:24:43.172Z,4.23
2018-07-30T21:27:11.472Z,4.07
2018-07-30T21:29:39.770Z,3.90
2018-07-30T21:32:08.114Z,4.30
2018-07-30T21:34:36.396Z,4.03
2018-07-30T21:37:04.724Z,4.00
2018-07-30T21:39:33.012Z,4.00
2018-07-30T21:42:01.354Z,3.90
2018-07-30T21:44:29.647Z,4.07
2018-07-30T21:46:57.950Z,3.87
2018-07-30T21:49:26.236Z,3.87
2018-07-30T21:51:54.552Z,3.77
2018-07-30T21:54:22.878Z,4.20
2018-07-30T21:56:51.156Z,4.00
2018-07-30T21:59:19.427Z,4.53
2018-07-30T22:01:47.723Z,4.80
2018-07-30T22:04:16.018Z,4.60
2018-07-30T22:06:44.279Z,3.97
2018-07-30T22:09:12.574Z,4.47
2018-07-30T22:11:40.841Z,4.20
2018-07-30T22:14:09.124Z,4.13
2018-07-30T22:16:37.401Z,3.87
2018-07-30T22:19:05.722Z,4.20
2018-07-30T22:21:33.988Z,4.07
2018-07-30T22:24:02.243Z,4.00
2018-07-30T22:26:30.520Z,4.10
2018-07-30T22:28:58.812Z,4.53
2018-07-30T22:31:27.087Z,4.57
2018-07-30T22:33:55.360Z,4.63
2018-07-30T22:36:23.388Z,4.50
2018-07-30T22:38:51.677Z,4.40
2018-07-30T22:41:20.059Z,4.83
2018-07-30T22:43:48.432Z,4.20
2018-07-30T22:46:16.703Z,4.40
2018-07-30T22:48:44.986Z,4.50
2018-07-30T22:51:13.294Z,4.93
2018-07-30T22:53:41.568Z,4.50
2018-07-30T22:56:09.860Z,4.40
2018-07-30T22:58:38.147Z,3.80
2018-07-30T23:01:06.476Z,4.80
2018-07-30T23:03:34.752Z,3.97
2018-07-30T23:06:03.112Z,4.00
2018-07-30T23:08:31.390Z,4.17
2018-07-30T23:10:59.675Z,4.30
2018-07-30T23:13:27.948Z,4.23
2018-07-30T23:15:56.222Z,3.97
2018-07-30T23:18:24.572Z,3.97
2018-07-30T23:20:52.876Z,4.43
2018-07-30T23:23:21.152Z,3.80
2018-07-30T23:25:49.454Z,4.30
2018-07-30T23:28:17.851Z,4.00
2018-07-30T23:30:46.120Z,3.70
2018-07-30T23:33:14.388Z,4.00
2018-07-30T23:35:42.683Z,3.67
2018-07-30T23:38:10.970Z,4.20
2018-07-30T23:40:39.248Z,4.17
2018-07-30T23:43:07.554Z,3.93
2018-07-30T23:45:35.800Z,3.77
2018-07-30T23:48:03.786Z,3.83
2018-07-30T23:50:32.039Z,3.97
2018-07-30T23:53:00.312Z,4.27
2018-07-30T23:55:28.564Z,3.77
2018-07-30T23:57:56.832Z,4.17
